createdAt,value
2023-02-08T00:01:41.023Z,-8.30
2023-02-08T00:05:44.522Z,-8.20
2023-02-08T00:09:51.538Z,-8.20
2023-02-08T00:13:55.002Z,-8.10
2023-02-08T00:17:59.999Z,-8.10
2023-02-08T00:22:06.710Z,-8.10
2023-02-08T00:26:10.882Z,-8.10
2023-02-08T00:30:16.029Z,-8.10
2023-02-08T00:34:20.962Z,-8.10
2023-02-08T00:38:50.916Z,-8.00
2023-02-08T00:42:54.797Z,-8.00
2023-02-08T00:46:58.299Z,-8.00
2023-02-08T00:51:05.903Z,-7.90
2023-02-08T00:55:10.389Z,-7.90
2023-02-08T00:59:13.826Z,-7.90
2023-02-08T01:03:39.000Z,-7.90
2023-02-08T01:07:43.814Z,-7.80
2023-02-08T01:11:47.449Z,-7.90
2023-02-08T01:16:41.822Z,-7.90
2023-02-08T01:20:45.323Z,-7.90
2023-02-08T01:24:56.109Z,-8.00
2023-02-08T01:28:59.744Z,-8.00
2023-02-08T01:33:56.800Z,-8.00
2023-02-08T01:38:25.157Z,-8.00
2023-02-08T01:42:30.041Z,-8.00
2023-02-08T01:46:35.020Z,-7.90
2023-02-08T01:50:46.572Z,-7.90
2023-02-08T01:54:56.398Z,-7.90
2023-02-08T01:59:16.785Z,-7.90
2023-02-08T02:03:22.173Z,-8.00
2023-02-08T02:07:29.588Z,-8.00
2023-02-08T02:11:42.940Z,-8.10
2023-02-08T02:15:48.048Z,-8.10
2023-02-08T02:20:31.612Z,-8.10
2023-02-08T02:24:55.028Z,-8.10
2023-02-08T02:29:41.367Z,-8.10
2023-02-08T02:34:03.904Z,-8.10
2023-02-08T02:38:16.032Z,-8.10
2023-02-08T02:48:11.886Z,-8.20
2023-02-08T02:52:35.785Z,-8.20
2023-02-08T02:56:43.936Z,-8.30
2023-02-08T03:01:09.056Z,-8.20
2023-02-08T03:05:13.713Z,-8.20
2023-02-08T03:09:42.144Z,-8.20
2023-02-08T03:14:24.752Z,-8.20
2023-02-08T03:18:43.074Z,-8.20
2023-02-08T03:22:59.785Z,-8.20
2023-02-08T03:27:09.590Z,-8.20
2023-02-08T03:31:17.697Z,-8.20
2023-02-08T03:35:25.915Z,-8.20
2023-02-08T03:39:33.068Z,-8.20
2023-02-08T03:43:41.837Z,-8.10
2023-02-08T03:47:58.300Z,-8.20
2023-02-08T03:52:04.927Z,-8.20
2023-02-08T03:56:19.389Z,-8.10
2023-02-08T04:00:25.412Z,-8.20
2023-02-08T04:04:41.987Z,-8.20
2023-02-08T04:08:45.577Z,-8.20
2023-02-08T04:12:50.348Z,-8.20
2023-02-08T04:16:58.782Z,-8.10
2023-02-08T04:21:02.365Z,-8.20
2023-02-08T04:25:06.110Z,-8.30
2023-02-08T04:29:11.824Z,-8.30
2023-02-08T04:33:17.153Z,-8.30
2023-02-08T04:37:20.776Z,-8.30
2023-02-08T04:41:24.348Z,-8.30
2023-02-08T04:45:30.064Z,-8.20
2023-02-08T04:50:00.169Z,-8.30
2023-02-08T04:54:42.472Z,-8.20
2023-02-08T04:58:45.892Z,-8.30
2023-02-08T05:02:54.498Z,-8.10
2023-02-08T05:06:59.383Z,-8.10
2023-02-08T05:11:02.907Z,-8.20
2023-02-08T05:15:31.860Z,-8.40
2023-02-08T05:19:42.651Z,-8.30
2023-02-08T05:23:47.505Z,-8.50
2023-02-08T05:27:51.170Z,-8.40
2023-02-08T05:31:59.341Z,-8.20
2023-02-08T05:36:05.064Z,-8.20
2023-02-08T05:40:13.312Z,-8.40
2023-02-08T05:44:16.866Z,-8.40
2023-02-08T05:48:25.743Z,-8.30
2023-02-08T05:52:29.257Z,-8.30
2023-02-08T05:56:34.438Z,-8.30
2023-02-08T06:00:40.685Z,-8.20
2023-02-08T06:04:44.358Z,-8.20
2023-02-08T06:08:48.243Z,-8.30
2023-02-08T06:13:09.318Z,-8.30
2023-02-08T06:17:12.840Z,-8.30
2023-02-08T06:21:16.301Z,-8.30
2023-02-08T06:25:20.989Z,-8.20
2023-02-08T06:29:25.937Z,-8.30
2023-02-08T06:33:29.525Z,-8.40
2023-02-08T06:37:58.873Z,-8.40
2023-02-08T06:42:03.493Z,-8.40
2023-02-08T06:46:08.959Z,-8.40
2023-02-08T06:50:12.934Z,-8.40
2023-02-08T06:54:41.826Z,-8.40
2023-02-08T06:58:51.405Z,-8.40
2023-02-08T07:02:56.291Z,-8.40
2023-02-08T07:06:59.869Z,-8.20
2023-02-08T07:11:28.992Z,-8.30
2023-02-08T07:15:42.975Z,-8.10
2023-02-08T07:19:47.976Z,-8.10
2023-02-08T07:23:51.641Z,-8.10
2023-02-08T07:27:57.244Z,-7.80
2023-02-08T07:32:02.551Z,-7.60
2023-02-08T07:36:09.115Z,-7.60
2023-02-08T07:40:13.254Z,-7.60
2023-02-08T07:44:16.700Z,-7.50
2023-02-08T07:48:28.632Z,-7.50
2023-02-08T07:52:34.146Z,-7.40
2023-02-08T07:56:37.796Z,-7.40
2023-02-08T08:06:22.754Z,-7.10
2023-02-08T08:10:27.703Z,-7.00
2023-02-08T08:14:31.277Z,-6.80
2023-02-08T08:18:34.828Z,-6.80
2023-02-08T08:22:43.447Z,-6.60
2023-02-08T08:26:48.377Z,-6.30
2023-02-08T08:30:52.079Z,-5.90
2023-02-08T08:35:47.615Z,-5.70
2023-02-08T08:39:51.492Z,-5.80
2023-02-08T08:43:56.419Z,-6.10
2023-02-08T08:48:00.770Z,-6.20
2023-02-08T08:52:07.969Z,-6.50
2023-02-08T08:56:11.591Z,-6.60
2023-02-08T09:00:17.052Z,-6.50
2023-02-08T09:04:22.860Z,-6.50
2023-02-08T09:08:26.434Z,-6.20
2023-02-08T09:12:30.152Z,-6.10
2023-02-08T09:16:36.252Z,-5.90
2023-02-08T09:20:40.144Z,-5.90
2023-02-08T09:24:43.653Z,-5.80
2023-02-08T09:28:53.603Z,-5.50
2023-02-08T09:32:58.480Z,-5.10
2023-02-08T09:37:01.966Z,-5.10
2023-02-08T09:41:31.235Z,-5.10
2023-02-08T09:45:59.231Z,-4.80
2023-02-08T09:50:14.255Z,-4.60
2023-02-08T09:54:22.446Z,-4.40
2023-02-08T10:03:35.151Z,-4.20
2023-02-08T10:07:42.741Z,-4.00
2023-02-08T10:12:00.013Z,-3.80
2023-02-08T10:16:16.040Z,-3.70
2023-02-08T10:20:41.228Z,-3.60
2023-02-08T10:25:09.087Z,-3.40
2023-02-08T10:30:01.280Z,-3.40
2023-02-08T10:34:09.470Z,-3.20
2023-02-08T10:38:46.429Z,-3.10
2023-02-08T10:42:57.455Z,-3.00
2023-02-08T10:47:24.772Z,-2.90
2023-02-08T10:51:30.060Z,-2.90
2023-02-08T10:55:37.672Z,-2.80
2023-02-08T10:59:59.616Z,-2.70
2023-02-08T11:04:04.799Z,-2.70
2023-02-08T11:08:10.915Z,-2.60
2023-02-08T11:12:41.562Z,-2.40
2023-02-08T11:17:08.067Z,-2.30
2023-02-08T11:21:25.154Z,-2.30
2023-02-08T11:25:39.136Z,-2.10
2023-02-08T11:30:34.394Z,-1.80
2023-02-08T11:35:15.546Z,-1.90
2023-02-08T11:39:25.579Z,-2.20
2023-02-08T11:43:31.717Z,-2.10
2023-02-08T11:47:38.536Z,-2.40
2023-02-08T11:51:47.396Z,-2.70
2023-02-08T11:56:05.509Z,-3.00
2023-02-08T12:00:20.399Z,-3.00
2023-02-08T12:04:25.706Z,-3.00
2023-02-08T12:08:50.987Z,-3.10
2023-02-08T12:13:26.803Z,-2.90
2023-02-08T12:18:00.625Z,-2.80
2023-02-08T12:22:10.757Z,-2.70
2023-02-08T12:26:50.872Z,-2.60
2023-02-08T12:31:16.610Z,-2.50
2023-02-08T12:36:01.414Z,-2.30
2023-02-08T12:40:46.346Z,-2.40
2023-02-08T12:45:24.138Z,-2.90
2023-02-08T12:50:17.175Z,-3.00
2023-02-08T12:54:35.141Z,-3.20
2023-02-08T12:59:13.525Z,-3.40
2023-02-08T13:04:03.759Z,-3.40
2023-02-08T13:08:25.869Z,-3.40
2023-02-08T13:12:32.829Z,-3.40
2023-02-08T13:16:42.472Z,-3.30
2023-02-08T13:20:52.477Z,-3.30
2023-02-08T13:25:11.649Z,-2.90
2023-02-08T13:29:27.177Z,-3.10
2023-02-08T13:34:01.178Z,-3.00
2023-02-08T13:38:30.008Z,-3.00
2023-02-08T13:42:43.651Z,-3.00
2023-02-08T13:46:49.896Z,-2.80
2023-02-08T13:50:54.870Z,-2.80
2023-02-08T13:55:36.225Z,-2.80
2023-02-08T13:59:42.404Z,-2.70
2023-02-08T14:04:33.688Z,-2.70
2023-02-08T14:09:07.633Z,-2.90
2023-02-08T14:13:25.381Z,-2.90
2023-02-08T14:17:31.415Z,-2.70
2023-02-08T14:22:07.099Z,-3.00
2023-02-08T14:26:25.508Z,-3.20
2023-02-08T14:30:31.817Z,-3.30
2023-02-08T14:34:41.380Z,-3.50
2023-02-08T14:39:08.847Z,-3.50
2023-02-08T14:43:34.584Z,-3.70
2023-02-08T14:48:16.036Z,-3.50
2023-02-08T14:52:24.921Z,-3.70
2023-02-08T14:56:32.358Z,-3.80
2023-02-08T15:00:39.363Z,-3.70
2023-02-08T15:04:51.319Z,-3.80
2023-02-08T15:08:57.182Z,-3.90
2023-02-08T15:13:03.997Z,-4.10
2023-02-08T15:17:22.627Z,-3.90
2023-02-08T15:21:36.759Z,-4.10
2023-02-08T15:25:42.161Z,-4.20
2023-02-08T15:29:46.225Z,-4.40
2023-02-08T15:33:51.437Z,-4.50
2023-02-08T15:37:56.346Z,-4.70
2023-02-08T15:42:02.863Z,-4.60
2023-02-08T15:46:08.966Z,-4.90
2023-02-08T15:50:21.301Z,-4.90
2023-02-08T15:54:25.576Z,-5.10
2023-02-08T15:58:32.957Z,-5.30
2023-02-08T16:02:40.835Z,-5.10
2023-02-08T16:06:49.280Z,-5.20
2023-02-08T16:11:01.321Z,-5.40
2023-02-08T16:15:06.953Z,-5.50
2023-02-08T16:19:28.680Z,-5.50
2023-02-08T16:23:34.007Z,-5.60
2023-02-08T16:27:37.609Z,-5.60
2023-02-08T16:31:45.748Z,-5.70
2023-02-08T16:35:49.626Z,-5.90
2023-02-08T16:40:36.599Z,-5.90
2023-02-08T16:44:40.122Z,-5.90
2023-02-08T16:48:46.227Z,-6.00
2023-02-08T16:53:01.043Z,-5.90
2023-02-08T16:57:04.662Z,-6.00
2023-02-08T17:01:11.252Z,-6.10
2023-02-08T17:05:41.607Z,-6.10
2023-02-08T17:09:47.257Z,-6.10
2023-02-08T17:13:52.367Z,-6.20
2023-02-08T17:17:57.240Z,-6.20
2023-02-08T17:22:04.522Z,-6.20
2023-02-08T17:30:37.616Z,-6.40
2023-02-08T17:34:41.152Z,-6.30
2023-02-08T17:38:47.545Z,-6.40
2023-02-08T17:42:53.148Z,-6.50
2023-02-08T17:46:56.745Z,-6.40
2023-02-08T17:51:00.595Z,-6.50
2023-02-08T17:55:06.420Z,-6.70
2023-02-08T17:59:09.896Z,-6.60
2023-02-08T18:03:17.395Z,-6.60
2023-02-08T18:07:21.677Z,-6.60
2023-02-08T18:11:26.734Z,-6.60
2023-02-08T18:15:57.116Z,-6.50
2023-02-08T18:20:01.083Z,-6.50
2023-02-08T18:24:05.615Z,-6.50
2023-02-08T18:28:14.754Z,-6.40
2023-02-08T18:32:20.616Z,-6.40
2023-02-08T18:36:25.379Z,-6.40
2023-02-08T18:40:30.410Z,-6.40
2023-02-08T18:50:10.795Z,-6.40
2023-02-08T18:54:15.348Z,-6.50
2023-02-08T18:59:35.161Z,-6.40
2023-02-08T19:03:39.798Z,-6.30
2023-02-08T19:07:44.830Z,-6.40
2023-02-08T19:11:48.649Z,-6.40
2023-02-08T19:15:52.214Z,-6.40
2023-02-08T19:19:55.846Z,-6.50
2023-02-08T19:24:25.838Z,-6.40
2023-02-08T19:28:29.516Z,-6.40
2023-02-08T19:32:33.117Z,-6.40
2023-02-08T19:36:51.942Z,-6.40
2023-02-08T19:40:57.146Z,-6.40
2023-02-08T19:45:05.402Z,-6.40
2023-02-08T19:49:09.430Z,-6.50
2023-02-08T19:53:12.939Z,-6.40
2023-02-08T19:57:23.525Z,-6.50
2023-02-08T20:01:27.109Z,-6.60
2023-02-08T20:05:30.632Z,-6.50
2023-02-08T20:09:34.805Z,-6.60
2023-02-08T20:13:40.004Z,-6.60
2023-02-08T20:17:44.825Z,-6.60
2023-02-08T20:21:48.405Z,-6.70
2023-02-08T20:25:51.894Z,-6.70
2023-02-08T20:29:58.245Z,-6.70
2023-02-08T20:34:26.390Z,-6.70
2023-02-08T20:38:34.327Z,-6.70
2023-02-08T20:42:39.494Z,-6.70
2023-02-08T20:46:45.139Z,-6.70
2023-02-08T20:50:48.698Z,-6.70
2023-02-08T20:54:53.252Z,-6.70
2023-02-08T20:58:56.872Z,-6.70
2023-02-08T21:03:01.922Z,-6.70
2023-02-08T21:07:11.733Z,-6.70
2023-02-08T21:11:15.188Z,-6.70
2023-02-08T21:15:18.898Z,-6.70
2023-02-08T21:20:30.499Z,-6.70
2023-02-08T21:24:35.718Z,-6.70
2023-02-08T21:28:39.427Z,-6.70
2023-02-08T21:32:54.259Z,-6.70
2023-02-08T21:36:57.875Z,-6.60
2023-02-08T21:41:33.318Z,-6.60
2023-02-08T21:45:36.952Z,-6.70
2023-02-08T21:54:49.010Z,-6.70
2023-02-08T21:58:54.100Z,-6.70
2023-02-08T22:02:57.672Z,-6.60
2023-02-08T22:07:12.633Z,-6.70
2023-02-08T22:11:16.472Z,-6.80
2023-02-08T22:15:23.765Z,-6.80
2023-02-08T22:19:30.982Z,-6.80
2023-02-08T22:23:34.440Z,-6.70
2023-02-08T22:27:38.655Z,-6.70
2023-02-08T22:32:10.177Z,-6.70
2023-02-08T22:36:17.501Z,-6.70
2023-02-08T22:40:26.055Z,-6.60
2023-02-08T22:44:29.660Z,-6.70
2023-02-08T22:48:33.997Z,-6.80
2023-02-08T22:52:44.632Z,-6.80
2023-02-08T22:56:48.212Z,-6.80
2023-02-08T23:00:51.890Z,-6.90
2023-02-08T23:04:56.794Z,-6.90
2023-02-08T23:09:01.747Z,-6.90
2023-02-08T23:13:05.676Z,-6.90
2023-02-08T23:17:12.889Z,-7.00
2023-02-08T23:21:18.282Z,-7.00
2023-02-08T23:25:24.056Z,-7.00
2023-02-08T23:29:42.018Z,-7.00
2023-02-08T23:33:45.563Z,-7.00
2023-02-08T23:37:49.050Z,-7.10
2023-02-08T23:41:56.732Z,-7.10
2023-02-08T23:46:00.296Z,-7.10
2023-02-08T23:50:03.956Z,-7.20
2023-02-08T23:54:07.803Z,-7.30
2023-02-08T23:58:12.644Z,-7.30
